createdAt,value
2023-04-24T00:00:49.770Z,99089.44
2023-04-24T00:03:17.993Z,99093.63
2023-04-24T00:05:46.653Z,99101.97
2023-04-24T00:08:14.350Z,99086.03
2023-04-24T00:10:42.017Z,99087.66
2023-04-24T00:13:11.150Z,99097.81
2023-04-24T00:15:38.822Z,99095.56
2023-04-24T00:18:06.977Z,99105.78
2023-04-24T00:20:36.368Z,99102.38
2023-04-24T00:23:04.071Z,99103.56
2023-04-24T00:25:31.721Z,99099.31
2023-04-24T00:27:59.502Z,99107.03
2023-04-24T00:30:28.609Z,99112.75
2023-04-24T00:32:56.387Z,99123.25
2023-04-24T00:35:24.404Z,99103.50
2023-04-24T00:37:52.236Z,99114.50
2023-04-24T00:40:19.925Z,99110.72
2023-04-24T00:42:47.618Z,99107.22
2023-04-24T00:45:15.728Z,99107.66
2023-04-24T00:47:44.807Z,99119.34
2023-04-24T00:50:14.416Z,99106.25
2023-04-24T00:52:42.219Z,99103.50
2023-04-24T00:55:11.460Z,99113.88
2023-04-24T00:57:39.172Z,99116.72
2023-04-24T01:00:11.561Z,99111.97
2023-04-24T01:02:41.097Z,99113.66
2023-04-24T01:05:10.856Z,99102.53
2023-04-24T01:07:39.326Z,99118.94
2023-04-24T01:10:08.445Z,99118.53
2023-04-24T01:12:36.281Z,99121.22
2023-04-24T01:15:06.097Z,99122.53
2023-04-24T01:17:33.888Z,99124.03
2023-04-24T01:20:01.921Z,99126.66
2023-04-24T01:22:30.975Z,99130.34
2023-04-24T01:24:59.097Z,99111.78
2023-04-24T01:27:26.855Z,99116.00
2023-04-24T01:29:54.635Z,99127.63
2023-04-24T01:32:22.461Z,99124.69
2023-04-24T01:34:50.671Z,99109.22
2023-04-24T01:37:18.783Z,99133.69
2023-04-24T01:39:47.971Z,99133.69
2023-04-24T01:42:15.893Z,99118.75
2023-04-24T01:44:43.929Z,99117.38
2023-04-24T01:47:11.784Z,99106.28
2023-04-24T01:49:40.463Z,99114.84
2023-04-24T01:52:08.703Z,99118.03
2023-04-24T01:54:36.464Z,99126.59
2023-04-24T01:57:05.778Z,99113.44
2023-04-24T01:59:35.597Z,99121.81
2023-04-24T02:02:03.494Z,99126.31
2023-04-24T02:04:31.319Z,99118.91
2023-04-24T02:06:58.971Z,99130.75
2023-04-24T02:09:26.920Z,99117.81
2023-04-24T02:11:54.572Z,99114.06
2023-04-24T02:14:23.641Z,99129.38
2023-04-24T02:16:51.431Z,99126.31
2023-04-24T02:19:19.259Z,99128.28
2023-04-24T02:21:47.013Z,99122.97
2023-04-24T02:24:14.725Z,99128.69
2023-04-24T02:26:42.455Z,99123.50
2023-04-24T02:29:10.187Z,99123.81
2023-04-24T02:31:39.230Z,99122.41
2023-04-24T02:34:07.018Z,99119.03
2023-04-24T02:36:34.780Z,99125.75
2023-04-24T02:39:03.455Z,99126.59
2023-04-24T02:41:33.112Z,99124.72
2023-04-24T02:44:01.951Z,99116.31
2023-04-24T02:46:29.859Z,99118.47
2023-04-24T02:48:59.011Z,99133.81
2023-04-24T02:51:27.826Z,99126.31
2023-04-24T02:53:55.564Z,99113.44
2023-04-24T02:56:23.305Z,99121.56
2023-04-24T02:58:50.991Z,99120.41
2023-04-24T03:01:18.951Z,99110.66
2023-04-24T03:03:46.909Z,99109.34
2023-04-24T03:06:16.527Z,99123.75
2023-04-24T03:08:44.400Z,99111.75
2023-04-24T03:11:12.092Z,99116.97
2023-04-24T03:13:39.796Z,99109.53
2023-04-24T03:16:07.852Z,99122.53
2023-04-24T03:18:35.645Z,99123.94
2023-04-24T03:21:04.476Z,99129.03
2023-04-24T03:23:33.579Z,99126.84
2023-04-24T03:26:01.293Z,99101.44
2023-04-24T03:28:29.002Z,99131.59
2023-04-24T03:30:56.754Z,99126.16
2023-04-24T03:33:24.445Z,99133.28
2023-04-24T03:35:52.098Z,99137.47
2023-04-24T03:38:19.706Z,99136.28
2023-04-24T03:40:48.772Z,99136.31
2023-04-24T03:43:16.470Z,99139.69
2023-04-24T03:45:44.184Z,99128.25
2023-04-24T03:48:11.939Z,99138.28
2023-04-24T03:50:39.669Z,99138.41
2023-04-24T03:53:07.374Z,99141.03
2023-04-24T03:55:35.299Z,99136.53
2023-04-24T03:58:04.494Z,99140.44
2023-04-24T04:00:34.336Z,99147.38
2023-04-24T04:03:02.635Z,99144.94
2023-04-24T04:05:30.651Z,99134.22
2023-04-24T04:07:58.468Z,99145.59
2023-04-24T04:10:26.242Z,99152.41
2023-04-24T04:12:54.006Z,99149.41
2023-04-24T04:15:23.085Z,99152.47
2023-04-24T04:17:50.835Z,99152.31
2023-04-24T04:20:18.646Z,99149.78
2023-04-24T04:22:46.384Z,99160.03
2023-04-24T04:25:14.514Z,99157.28
2023-04-24T04:27:42.691Z,99163.97
2023-04-24T04:30:10.938Z,99163.69
2023-04-24T04:32:40.010Z,99157.22
2023-04-24T04:35:08.321Z,99167.25
2023-04-24T04:37:36.096Z,99168.34
2023-04-24T04:40:07.425Z,99156.28
2023-04-24T04:42:35.718Z,99178.66
2023-04-24T04:45:03.410Z,99173.81
2023-04-24T04:47:32.888Z,99175.03
2023-04-24T04:50:02.080Z,99183.16
2023-04-24T04:52:29.831Z,99181.16
2023-04-24T04:54:57.831Z,99179.22
2023-04-24T04:57:25.736Z,99190.53
2023-04-24T04:59:53.415Z,99193.63
2023-04-24T05:02:21.739Z,99195.47
2023-04-24T05:04:49.796Z,99193.00
2023-04-24T05:07:19.435Z,99188.94
2023-04-24T05:09:47.190Z,99203.41
2023-04-24T05:12:14.920Z,99203.75
2023-04-24T05:14:42.743Z,99192.72
2023-04-24T05:17:11.140Z,99209.78
2023-04-24T05:19:39.648Z,99208.41
2023-04-24T05:22:08.060Z,99215.34
2023-04-24T05:24:37.291Z,99216.38
2023-04-24T05:27:05.608Z,99213.22
2023-04-24T05:29:34.179Z,99208.75
2023-04-24T05:32:02.276Z,99201.59
2023-04-24T05:34:30.051Z,99215.78
2023-04-24T05:36:57.808Z,99217.66
2023-04-24T05:39:26.068Z,99217.97
2023-04-24T05:41:56.127Z,99231.94
2023-04-24T05:44:23.854Z,99236.25
2023-04-24T05:46:51.820Z,99232.63
2023-04-24T05:49:19.705Z,99238.88
2023-04-24T05:51:47.442Z,99244.88
2023-04-24T06:00:00.699Z,99239.03
2023-04-24T06:02:30.019Z,99246.38
2023-04-24T06:04:58.771Z,99247.06
2023-04-24T06:07:27.328Z,99254.69
2023-04-24T06:09:55.056Z,99239.44
2023-04-24T06:12:24.201Z,99261.59
2023-04-24T06:14:52.258Z,99258.91
2023-04-24T06:17:20.680Z,99257.84
2023-04-24T06:19:48.585Z,99251.09
2023-04-24T06:22:16.309Z,99255.09
2023-04-24T06:24:44.048Z,99256.56
2023-04-24T06:27:12.183Z,99264.44
2023-04-24T06:29:41.873Z,99255.47
2023-04-24T06:32:09.762Z,99254.41
2023-04-24T06:34:37.701Z,99264.34
2023-04-24T06:37:05.500Z,99268.09
2023-04-24T06:39:33.235Z,99274.28
2023-04-24T06:42:01.461Z,99270.94
2023-04-24T06:44:29.205Z,99277.44
2023-04-24T06:46:58.262Z,99279.63
2023-04-24T06:49:26.057Z,99281.38
2023-04-24T06:51:53.771Z,99278.75
2023-04-24T06:54:21.572Z,99279.25
2023-04-24T06:56:50.719Z,99281.75
2023-04-24T06:59:18.407Z,99273.97
2023-04-24T07:01:46.377Z,99287.28
2023-04-24T07:04:16.262Z,99289.56
2023-04-24T07:06:44.292Z,99288.97
2023-04-24T07:09:12.395Z,99290.81
2023-04-24T07:11:41.637Z,99294.66
2023-04-24T07:14:09.783Z,99292.06
2023-04-24T07:16:37.766Z,99290.66
2023-04-24T07:19:05.514Z,99299.88
2023-04-24T07:21:34.670Z,99295.09
2023-04-24T07:24:02.457Z,99305.72
2023-04-24T07:26:31.581Z,99307.31
2023-04-24T07:28:59.421Z,99302.38
2023-04-24T07:31:27.120Z,99304.06
2023-04-24T07:33:54.913Z,99307.06
2023-04-24T07:36:22.589Z,99305.97
2023-04-24T07:38:51.774Z,99312.81
2023-04-24T07:41:19.482Z,99322.25
2023-04-24T07:43:47.170Z,99324.56
2023-04-24T07:46:15.063Z,99314.63
2023-04-24T07:48:42.854Z,99320.72
2023-04-24T07:51:11.184Z,99326.97
2023-04-24T07:53:38.840Z,99327.03
2023-04-24T07:56:08.161Z,99317.63
2023-04-24T07:58:35.920Z,99316.22
2023-04-24T08:01:03.785Z,99325.09
2023-04-24T08:03:31.742Z,99326.25
2023-04-24T08:05:59.572Z,99319.91
2023-04-24T08:08:27.536Z,99326.88
2023-04-24T08:10:55.782Z,99332.88
2023-04-24T08:13:24.904Z,99332.28
2023-04-24T08:15:52.781Z,99345.13
2023-04-24T08:18:20.688Z,99337.56
2023-04-24T08:20:48.503Z,99340.03
2023-04-24T08:23:16.260Z,99357.91
2023-04-24T08:25:44.088Z,99358.09
2023-04-24T08:28:11.976Z,99360.28
2023-04-24T08:30:41.214Z,99349.25
2023-04-24T08:33:09.206Z,99372.94
2023-04-24T08:35:37.065Z,99364.28
2023-04-24T08:38:04.829Z,99360.31
2023-04-24T08:40:36.409Z,99377.13
2023-04-24T08:43:05.033Z,99374.69
2023-04-24T08:45:32.845Z,99373.06
2023-04-24T08:48:02.496Z,99373.44
2023-04-24T08:50:31.198Z,99389.59
2023-04-24T08:52:59.626Z,99385.56
2023-04-24T08:55:27.409Z,99385.06
2023-04-24T08:57:55.364Z,99397.66
2023-04-24T09:00:23.936Z,99399.09
2023-04-24T09:02:52.591Z,99401.91
2023-04-24T09:05:23.515Z,99406.59
2023-04-24T09:07:53.211Z,99417.09
2023-04-24T09:10:21.784Z,99409.19
2023-04-24T09:12:49.550Z,99399.78
2023-04-24T09:15:17.397Z,99408.91
2023-04-24T09:17:45.850Z,99429.22
2023-04-24T09:20:13.784Z,99422.84
2023-04-24T09:22:44.027Z,99433.03
2023-04-24T09:25:13.540Z,99455.63
2023-04-24T09:27:44.109Z,99445.91
2023-04-24T09:30:12.758Z,99451.00
2023-04-24T09:32:40.761Z,99448.84
2023-04-24T09:35:10.819Z,99457.59
2023-04-24T09:37:40.311Z,99468.75
2023-04-24T09:40:14.134Z,99473.28
2023-04-24T09:42:42.188Z,99480.72
2023-04-24T09:45:15.587Z,99508.19
2023-04-24T09:47:44.170Z,99516.59
2023-04-24T09:50:13.854Z,99520.66
2023-04-24T09:52:43.907Z,99511.13
2023-04-24T09:55:19.565Z,99525.84
2023-04-24T09:57:51.896Z,99513.88
2023-04-24T10:00:27.697Z,99538.00
2023-04-24T10:02:59.979Z,99540.22
2023-04-24T10:05:30.248Z,99552.25
2023-04-24T10:08:05.510Z,99562.59
2023-04-24T10:10:35.873Z,99565.88
2023-04-24T10:13:03.796Z,99557.38
2023-04-24T10:15:32.265Z,99570.59
2023-04-24T10:18:00.984Z,99578.66
2023-04-24T10:20:31.651Z,99578.41
2023-04-24T10:23:00.241Z,99572.69
2023-04-24T10:25:29.766Z,99565.44
2023-04-24T10:28:00.746Z,99597.31
2023-04-24T10:30:29.585Z,99588.66
2023-04-24T10:32:57.304Z,99599.59
2023-04-24T10:35:27.787Z,99607.59
2023-04-24T10:37:58.320Z,99617.84
2023-04-24T10:40:28.879Z,99609.94
2023-04-24T10:42:59.072Z,99612.81
2023-04-24T10:45:27.144Z,99616.19
2023-04-24T10:47:58.640Z,99619.03
2023-04-24T10:50:28.400Z,99630.19
2023-04-24T10:52:57.947Z,99632.97
2023-04-24T10:55:46.209Z,99641.72
2023-04-24T10:58:15.946Z,99657.53
2023-04-24T11:00:45.121Z,99666.34
2023-04-24T11:03:27.274Z,99668.44
2023-04-24T11:05:58.316Z,99660.69
2023-04-24T11:08:31.711Z,99665.41
2023-04-24T11:11:04.697Z,99688.06
2023-04-24T11:14:08.413Z,99698.06
2023-04-24T11:16:39.324Z,99693.84
2023-04-24T11:19:08.916Z,99665.09
2023-04-24T11:21:44.525Z,99704.34
2023-04-24T11:24:32.940Z,99703.31
2023-04-24T11:27:02.950Z,99711.00
2023-04-24T11:29:46.016Z,99718.50
2023-04-24T11:32:21.989Z,99709.25
2023-04-24T11:34:51.106Z,99735.56
2023-04-24T11:37:19.286Z,99731.63
2023-04-24T11:39:47.352Z,99737.81
2023-04-24T11:42:16.983Z,99736.22
2023-04-24T11:44:48.608Z,99733.66
2023-04-24T11:47:16.418Z,99733.09
2023-04-24T11:49:44.162Z,99725.53
2023-04-24T11:52:12.752Z,99731.97
2023-04-24T11:54:40.515Z,99718.25
2023-04-24T11:57:08.477Z,99724.56
2023-04-24T11:59:39.849Z,99747.31
2023-04-24T12:02:09.039Z,99767.56
2023-04-24T12:04:43.439Z,99759.88
2023-04-24T12:07:11.639Z,99761.84
2023-04-24T12:09:43.682Z,99771.34
2023-04-24T12:12:13.222Z,99768.19
2023-04-24T12:14:45.387Z,99763.78
2023-04-24T12:17:14.508Z,99783.41
2023-04-24T12:19:47.480Z,99786.16
2023-04-24T12:22:15.402Z,99800.31
2023-04-24T12:25:01.562Z,99795.53
2023-04-24T12:27:31.952Z,99779.59
2023-04-24T12:30:00.698Z,99787.63
2023-04-24T12:32:29.770Z,99778.72
2023-04-24T12:34:58.178Z,99771.88
2023-04-24T12:37:27.234Z,99793.34
2023-04-24T12:40:01.742Z,99789.56
2023-04-24T12:42:29.863Z,99802.16
2023-04-24T12:45:01.821Z,99819.75
2023-04-24T12:47:31.568Z,99807.94
2023-04-24T12:49:59.539Z,99818.66
2023-04-24T12:52:28.435Z,99806.03
2023-04-24T12:54:57.139Z,99827.50
2023-04-24T12:57:25.154Z,99835.09
2023-04-24T12:59:54.414Z,99842.88
2023-04-24T13:02:23.391Z,99842.69
2023-04-24T13:04:52.929Z,99825.63
2023-04-24T13:07:20.832Z,99845.34
2023-04-24T13:09:50.652Z,99842.88
2023-04-24T13:12:18.608Z,99844.88
2023-04-24T13:14:47.268Z,99840.84
2023-04-24T13:17:15.237Z,99859.97
2023-04-24T13:19:45.732Z,99849.31
2023-04-24T13:22:15.213Z,99858.81
2023-04-24T13:24:42.973Z,99858.19
2023-04-24T13:27:11.115Z,99856.66
2023-04-24T13:29:38.901Z,99867.69
2023-04-24T13:32:06.931Z,99878.88
2023-04-24T13:34:35.553Z,99880.28
2023-04-24T13:37:04.653Z,99878.72
2023-04-24T13:39:33.994Z,99884.84
2023-04-24T13:42:04.469Z,99858.88
2023-04-24T13:44:32.778Z,99868.75
2023-04-24T13:47:00.993Z,99872.50
2023-04-24T13:49:29.033Z,99867.88
2023-04-24T13:51:57.705Z,99865.66
2023-04-24T13:54:26.884Z,99857.59
2023-04-24T13:56:59.536Z,99875.31
2023-04-24T13:59:27.416Z,99869.38
2023-04-24T14:01:55.816Z,99884.06
2023-04-24T14:04:23.764Z,99866.78
2023-04-24T14:06:51.644Z,99883.41
2023-04-24T14:09:19.707Z,99885.16
2023-04-24T14:11:47.404Z,99890.97
2023-04-24T14:14:16.965Z,99888.50
2023-04-24T14:16:44.846Z,99877.34
2023-04-24T14:19:12.612Z,99902.38
2023-04-24T14:21:50.615Z,99894.03
2023-04-24T14:24:18.393Z,99883.03
2023-04-24T14:26:46.090Z,99892.09
2023-04-24T14:29:15.077Z,99881.75
2023-04-24T14:31:43.235Z,99891.25
2023-04-24T14:34:11.182Z,99898.00
2023-04-24T14:36:38.901Z,99905.94
2023-04-24T14:39:08.561Z,99910.19
2023-04-24T14:41:37.099Z,99888.22
2023-04-24T14:44:05.118Z,99890.66
2023-04-24T14:46:33.201Z,99888.84
2023-04-24T14:49:01.214Z,99896.06
2023-04-24T14:51:28.975Z,99914.09
2023-04-24T14:53:57.000Z,99909.50
2023-04-24T14:56:26.543Z,99912.41
2023-04-24T14:58:54.606Z,99900.09
2023-04-24T15:01:22.452Z,99902.59
2023-04-24T15:03:50.538Z,99903.56
2023-04-24T15:06:18.403Z,99908.19
2023-04-24T15:08:48.031Z,99902.34
2023-04-24T15:11:17.169Z,99895.78
2023-04-24T15:13:47.012Z,99915.50
2023-04-24T15:16:15.103Z,99928.66
2023-04-24T15:18:42.791Z,99935.97
2023-04-24T15:21:10.834Z,99934.72
2023-04-24T15:23:38.794Z,99951.88
2023-04-24T15:26:06.571Z,99953.50
2023-04-24T15:28:34.301Z,99947.59
2023-04-24T15:31:03.537Z,99951.59
2023-04-24T15:33:31.234Z,99943.34
2023-04-24T15:35:59.013Z,99939.88
2023-04-24T15:38:27.218Z,99946.72
2023-04-24T15:40:54.888Z,99948.78
2023-04-24T15:43:23.267Z,99971.25
2023-04-24T15:45:51.912Z,99960.06
2023-04-24T15:48:21.176Z,99959.53
2023-04-24T15:50:48.880Z,99951.50
2023-04-24T15:53:22.107Z,99950.72
2023-04-24T15:55:50.419Z,99964.03
2023-04-24T15:58:18.900Z,99958.31
2023-04-24T16:00:46.959Z,99971.81
2023-04-24T16:03:15.024Z,99992.69
2023-04-24T16:05:44.248Z,99979.56
2023-04-24T16:08:12.399Z,99961.69
2023-04-24T16:10:40.179Z,99978.09
2023-04-24T16:13:07.903Z,99952.72
2023-04-24T16:15:36.313Z,99958.53
2023-04-24T16:18:04.153Z,99980.91
2023-04-24T16:20:31.900Z,99960.31
2023-04-24T16:23:01.074Z,99970.63
2023-04-24T16:25:29.061Z,99970.34
2023-04-24T16:27:57.082Z,99973.50
2023-04-24T16:30:25.226Z,99985.81
2023-04-24T16:32:53.056Z,99981.94
2023-04-24T16:35:20.903Z,99976.72
2023-04-24T16:37:48.616Z,99989.28
2023-04-24T16:40:17.709Z,99974.88
2023-04-24T16:42:45.395Z,99994.56
2023-04-24T16:45:13.267Z,99991.03
2023-04-24T16:47:41.063Z,99994.81
2023-04-24T16:50:09.857Z,99996.72
2023-04-24T16:52:37.655Z,99984.66
2023-04-24T16:55:05.987Z,99986.50
2023-04-24T16:57:35.072Z,99980.03
2023-04-24T17:00:03.996Z,99999.03
2023-04-24T17:02:31.894Z,99994.78
2023-04-24T17:04:59.787Z,99986.34
2023-04-24T17:07:27.598Z,99978.44
2023-04-24T17:09:55.847Z,99987.06
2023-04-24T17:12:23.635Z,100000.28
2023-04-24T17:14:52.764Z,99999.84
2023-04-24T17:17:23.159Z,99987.41
2023-04-24T17:19:51.280Z,100000.00
2023-04-24T17:22:19.019Z,100005.97
2023-04-24T17:24:46.795Z,99991.25
2023-04-24T17:27:15.613Z,100015.00
2023-04-24T17:29:43.739Z,99998.78
2023-04-24T17:32:12.891Z,100012.91
2023-04-24T17:34:40.812Z,99994.47
2023-04-24T17:37:08.608Z,100010.72
2023-04-24T17:39:36.434Z,100023.88
2023-04-24T17:42:04.221Z,100014.16
2023-04-24T17:44:32.011Z,100013.16
2023-04-24T17:46:59.748Z,100010.88
2023-04-24T17:49:28.826Z,100006.03
2023-04-24T17:51:56.530Z,100012.00
2023-04-24T17:54:24.207Z,100018.28
2023-04-24T17:56:53.026Z,100011.84
2023-04-24T17:59:20.861Z,100020.75
2023-04-24T18:01:48.743Z,100014.41
2023-04-24T18:04:16.700Z,100029.13
2023-04-24T18:06:46.102Z,100009.47
2023-04-24T18:09:15.776Z,100015.47
2023-04-24T18:11:43.749Z,100027.59
2023-04-24T18:14:11.537Z,100026.72
2023-04-24T18:16:39.231Z,100037.81
2023-04-24T18:19:06.981Z,100026.81
2023-04-24T18:21:34.700Z,100041.72
2023-04-24T18:24:03.844Z,100032.59
2023-04-24T18:26:31.545Z,100035.91
2023-04-24T18:28:59.337Z,100041.13
2023-04-24T18:31:27.160Z,100034.69
2023-04-24T18:33:55.820Z,100046.97
2023-04-24T18:36:23.563Z,100046.25
2023-04-24T18:38:51.458Z,100044.25
2023-04-24T18:41:20.693Z,100047.47
2023-04-24T18:43:48.883Z,100046.56
2023-04-24T18:46:16.572Z,100042.13
2023-04-24T18:48:44.307Z,100062.00
2023-04-24T18:51:12.068Z,100048.03
2023-04-24T18:53:39.784Z,100057.41
2023-04-24T18:56:07.616Z,100045.00
2023-04-24T18:58:36.693Z,100052.31
2023-04-24T19:01:06.817Z,100062.25
2023-04-24T19:03:35.883Z,100061.72
2023-04-24T19:06:03.737Z,100062.97
2023-04-24T19:08:31.506Z,100057.16
2023-04-24T19:10:59.558Z,100068.81
2023-04-24T19:13:27.362Z,100061.34
2023-04-24T19:15:56.544Z,100062.47
2023-04-24T19:18:26.234Z,100075.63
2023-04-24T19:20:54.100Z,100062.28
2023-04-24T19:23:21.893Z,100082.59
2023-04-24T19:25:49.901Z,100093.28
2023-04-24T19:28:17.635Z,100091.38
2023-04-24T19:30:45.373Z,100092.53
2023-04-24T19:33:14.471Z,100094.22
2023-04-24T19:35:42.320Z,100091.84
2023-04-24T19:38:10.139Z,100097.84
2023-04-24T19:40:37.889Z,100093.69
2023-04-24T19:43:05.656Z,100100.47
2023-04-24T19:45:33.439Z,100114.88
2023-04-24T19:48:01.519Z,100113.56
2023-04-24T19:50:31.229Z,100098.09
2023-04-24T19:52:58.979Z,100107.03
2023-04-24T19:55:27.042Z,100106.88
2023-04-24T19:57:54.779Z,100083.19
2023-04-24T20:00:22.704Z,100096.63
2023-04-24T20:02:50.494Z,100097.84
2023-04-24T20:05:18.477Z,100097.09
2023-04-24T20:07:47.574Z,100097.56
2023-04-24T20:10:15.293Z,100093.97
2023-04-24T20:12:43.144Z,100094.56
2023-04-24T20:15:12.086Z,100096.03
2023-04-24T20:17:39.852Z,100094.84
2023-04-24T20:20:09.102Z,100099.47
2023-04-24T20:22:38.856Z,100088.09
2023-04-24T20:25:09.456Z,100093.06
2023-04-24T20:27:37.449Z,100081.09
2023-04-24T20:30:06.464Z,100097.34
2023-04-24T20:32:34.265Z,100103.66
2023-04-24T20:35:02.090Z,100097.09
2023-04-24T20:37:30.237Z,100097.03
2023-04-24T20:39:58.449Z,100100.31
2023-04-24T20:42:27.560Z,100104.84
2023-04-24T20:44:55.909Z,100093.03
2023-04-24T20:47:23.685Z,100096.69
2023-04-24T20:49:52.236Z,100091.19
2023-04-24T20:52:20.138Z,100093.28
2023-04-24T20:54:48.306Z,100100.88
2023-04-24T20:57:16.288Z,100103.22
2023-04-24T20:59:45.453Z,100094.16
2023-04-24T21:02:13.284Z,100093.97
2023-04-24T21:04:41.165Z,100098.84
2023-04-24T21:07:09.391Z,100091.16
2023-04-24T21:09:37.237Z,100094.44
2023-04-24T21:12:05.498Z,100093.69
2023-04-24T21:14:33.211Z,100086.13
2023-04-24T21:17:03.233Z,100097.78
2023-04-24T21:19:31.124Z,100100.91
2023-04-24T21:21:58.843Z,100083.25
2023-04-24T21:24:26.555Z,100085.34
2023-04-24T21:26:54.254Z,100098.50
2023-04-24T21:29:22.356Z,100085.38
2023-04-24T21:31:50.135Z,100101.03
2023-04-24T21:34:19.176Z,100098.50
2023-04-24T21:36:47.810Z,100107.00
2023-04-24T21:39:15.545Z,100089.59
2023-04-24T21:41:43.419Z,100103.47
2023-04-24T21:44:11.313Z,100106.47
2023-04-24T21:46:39.992Z,100102.16
2023-04-24T21:49:07.761Z,100101.53
2023-04-24T21:51:36.835Z,100095.16
2023-04-24T21:54:04.832Z,100107.03
2023-04-24T21:56:32.547Z,100112.59
2023-04-24T21:59:00.579Z,100107.41
2023-04-24T22:01:28.345Z,100116.34
2023-04-24T22:03:56.366Z,100110.41
2023-04-24T22:06:24.213Z,100125.41
2023-04-24T22:08:53.323Z,100133.13
2023-04-24T22:11:26.880Z,100136.75
2023-04-24T22:13:55.265Z,100138.28
2023-04-24T22:16:24.797Z,100133.00
2023-04-24T22:18:53.636Z,100141.63
2023-04-24T22:21:22.811Z,100121.56
2023-04-24T22:23:51.223Z,100134.22
2023-04-24T22:26:21.036Z,100134.16
2023-04-24T22:28:48.791Z,100141.19
2023-04-24T22:31:16.869Z,100134.19
2023-04-24T22:33:46.346Z,100131.19
2023-04-24T22:36:14.403Z,100139.06
2023-04-24T22:38:42.159Z,100154.66
2023-04-24T22:41:09.884Z,100150.94
2023-04-24T22:43:39.416Z,100145.47
2023-04-24T22:46:07.250Z,100148.72
2023-04-24T22:48:35.104Z,100146.38
2023-04-24T22:51:02.927Z,100150.38
2023-04-24T22:53:30.675Z,100150.94
2023-04-24T22:55:58.408Z,100158.56
2023-04-24T22:58:26.107Z,100151.63
2023-04-24T23:00:55.297Z,100162.47
2023-04-24T23:03:23.710Z,100169.44
2023-04-24T23:05:51.689Z,100150.75
2023-04-24T23:08:19.406Z,100167.16
2023-04-24T23:10:47.249Z,100177.03
2023-04-24T23:13:15.019Z,100165.31
2023-04-24T23:15:42.834Z,100172.69
2023-04-24T23:18:12.635Z,100185.16
2023-04-24T23:20:40.495Z,100187.25
2023-04-24T23:23:08.216Z,100185.88
2023-04-24T23:25:36.053Z,100174.78
2023-04-24T23:28:03.821Z,100200.69
2023-04-24T23:30:31.602Z,100189.22
2023-04-24T23:32:59.429Z,100194.00
2023-04-24T23:35:28.499Z,100199.03
2023-04-24T23:37:57.051Z,100205.06
2023-04-24T23:40:24.947Z,100199.00
2023-04-24T23:43:05.729Z,100196.56
2023-04-24T23:45:34.629Z,100189.25
2023-04-24T23:48:02.451Z,100200.25
2023-04-24T23:50:31.604Z,100196.31
2023-04-24T23:53:00.261Z,100206.00
2023-04-24T23:55:28.178Z,100199.66
2023-04-24T23:57:55.942Z,100201.03
